Time;durP1;ratioP1;P1;durP2;ratioP2;P2;SDS_P1;SDS_P2;PMS_P1;PMS_P2;Temp;Humidity;BMP_temperature;BMP_pressure;BME280_temperature;BME280_humidity;BME280_pressure;Samples;Min_cycle;Max_cycle;Signal;HPM_P1;HPM_P2
2023/07/26 00:00:55;;;;;;;15.32;10.23;;;;;;;-141.97;57.19;47394.16;5052041;28;20162;-77
2023/07/26 00:03:20;;;;;;;14.90;10.65;;;;;;;-141.97;57.28;47388.38;5049726;28;20526;-78
2023/07/26 00:05:47;;;;;;;15.50;10.98;;;;;;;-141.97;57.08;47342.25;5050955;28;20251;-78
2023/07/26 00:08:12;;;;;;;13.90;10.35;;;;;;;-141.97;56.65;47369.16;5083744;28;20701;-79
2023/07/26 00:10:38;;;;;;;19.15;10.60;;;;;;;-141.97;56.89;47373.00;5051305;28;20269;-78
2023/07/26 00:13:03;;;;;;;15.85;9.90;;;;;;;-141.97;56.58;47257.69;5051789;28;20168;-78
2023/07/26 00:15:28;;;;;;;17.67;10.52;;;;;;;-141.97;56.53;47355.72;5051545;28;20210;-78
2023/07/26 00:17:54;;;;;;;18.08;10.55;;;;;;;-141.97;56.74;47280.75;5051552;28;20254;-77
2023/07/26 00:20:19;;;;;;;16.55;10.38;;;;;;;-141.97;56.61;47317.28;5051549;28;20216;-78
2023/07/26 00:22:45;;;;;;;20.70;10.52;;;;;;;-141.97;56.33;47561.38;5051030;28;20198;-77
2023/07/26 00:25:10;;;;;;;15.27;10.30;;;;;;;-141.97;56.32;47340.34;5051082;28;20190;-78
2023/07/26 00:27:35;;;;;;;16.02;10.50;;;;;;;-141.97;56.51;47355.72;5051389;28;20242;-78
2023/07/26 00:30:01;;;;;;;15.50;10.73;;;;;;;-141.97;56.92;47315.34;5051952;28;20657;-77
2023/07/26 00:32:26;;;;;;;14.48;10.05;;;;;;;-141.97;56.95;47303.81;5051883;28;20180;-77
2023/07/26 00:34:51;;;;;;;14.38;10.93;;;;;;;-141.97;57.23;47369.16;5051903;28;20208;-77
2023/07/26 00:37:17;;;;;;;16.75;10.70;;;;;;;-141.97;57.15;47390.31;5051571;28;20732;-77
2023/07/26 00:39:43;;;;;;;15.98;11.07;;;;;;;-141.97;57.03;47284.59;5051796;28;20168;-77
2023/07/26 00:42:08;;;;;;;15.80;11.05;;;;;;;-141.97;57.12;47361.47;5051876;28;20580;-78
2023/07/26 00:44:34;;;;;;;16.15;10.70;;;;;;;-141.97;57.16;47380.69;5052065;28;20162;-77
2023/07/26 00:46:59;;;;;;;18.83;11.18;;;;;;;-141.97;57.49;47261.53;5051642;28;20190;-77
2023/07/26 00:49:26;;;;;;;17.75;11.10;;;;;;;-141.97;58.10;47276.91;5051828;28;20166;-77
2023/07/26 00:51:52;;;;;;;15.35;11.13;;;;;;;-141.97;57.95;47344.19;5051521;28;20571;-76
2023/07/26 00:54:21;;;;;;;17.50;11.18;;;;;;;-141.97;58.43;47321.13;5051610;28;20205;-78
2023/07/26 00:56:46;;;;;;;16.10;11.43;;;;;;;-141.97;58.92;47384.53;5051616;28;20165;-78
2023/07/26 00:59:12;;;;;;;18.08;11.40;;;;;;;-141.97;58.86;47388.38;5050033;28;20271;-77
2023/07/26 01:01:39;;;;;;;17.10;11.10;;;;;;;-141.97;58.75;47388.38;5050035;28;20168;-78
2023/07/26 01:04:05;;;;;;;14.95;10.68;;;;;;;-141.97;58.84;47426.81;5051639;28;20550;-78
2023/07/26 01:06:54;;;;;;;16.98;11.20;;;;;;;-141.97;58.93;47405.69;5049852;28;20176;-77
2023/07/26 01:09:22;;;;;;;15.05;11.15;;;;;;;-141.97;59.07;47388.38;5035259;28;20733;-78
2023/07/26 01:11:53;;;;;;;19.75;11.82;;;;;;;-141.97;59.16;47388.38;5049933;28;20189;-78
2023/07/26 01:14:32;;;;;;;17.48;11.30;;;;;;;-141.97;58.97;47371.09;5050864;28;20180;-78
2023/07/26 01:16:58;;;;;;;17.27;11.60;;;;;;;-141.97;59.09;47380.69;5049934;28;20393;-78
2023/07/26 01:19:23;;;;;;;15.52;11.15;;;;;;;-141.97;59.07;47380.69;5050203;28;20208;-77
2023/07/26 01:21:49;;;;;;;15.20;11.30;;;;;;;-141.97;58.96;47292.28;5050281;28;20226;-78
2023/07/26 01:24:14;;;;;;;16.08;11.70;;;;;;;-141.97;59.25;47353.78;5050568;28;20200;-79
2023/07/26 01:26:39;;;;;;;18.23;12.05;;;;;;;-141.97;59.06;47394.16;5050173;28;20184;-78
2023/07/26 01:29:05;;;;;;;14.57;11.27;;;;;;;-141.97;59.52;47411.44;5050291;28;20672;-77
2023/07/26 01:31:30;;;;;;;15.75;11.40;;;;;;;-141.97;59.20;47388.38;5049926;28;20187;-78
2023/07/26 01:33:58;;;;;;;17.38;11.95;;;;;;;-141.97;59.09;47403.75;5050215;28;20211;-77
2023/07/26 01:36:24;;;;;;;18.20;12.02;;;;;;;-141.97;59.04;47361.47;5047661;28;20233;-78
2023/07/26 01:38:51;;;;;;;16.17;11.18;;;;;;;-141.97;59.04;47396.06;5049188;28;20597;-78
2023/07/26 01:41:17;;;;;;;16.67;11.88;;;;;;;-141.97;58.90;47515.22;5049080;28;20263;-78
2023/07/26 01:43:43;;;;;;;17.83;11.75;;;;;;;-141.97;59.28;47351.88;5050399;28;20337;-78
2023/07/26 01:46:13;;;;;;;17.80;11.60;;;;;;;-141.97;59.33;47219.25;5059938;28;20161;-78
2023/07/26 01:48:39;;;;;;;16.70;11.85;;;;;;;-141.97;59.37;47292.28;5066836;28;20534;-79
2023/07/26 01:51:25;;;;;;;15.60;11.13;;;;;;;-141.97;59.65;47405.69;5052814;28;20196;-78
2023/07/26 01:53:51;;;;;;;21.80;12.30;;;;;;;-141.97;59.57;47348.03;5049970;28;20517;-78
2023/07/26 01:56:16;;;;;;;17.48;11.02;;;;;;;-141.97;59.25;47657.47;5049589;28;20724;-77
2023/07/26 01:58:41;;;;;;;15.80;11.80;;;;;;;-141.97;58.95;47396.06;5049744;28;20263;-78
2023/07/26 02:01:07;;;;;;;15.57;10.95;;;;;;;-141.97;58.58;47415.28;5050110;28;20210;-79
2023/07/26 02:03:32;;;;;;;15.98;11.25;;;;;;;-141.97;58.73;47380.69;5046677;28;20224;-78
2023/07/26 02:05:58;;;;;;;20.27;11.77;;;;;;;-141.97;58.65;47415.28;5049497;28;20227;-78
2023/07/26 02:08:23;;;;;;;15.68;11.05;;;;;;;-141.97;58.71;47396.06;5037294;28;20248;-78
2023/07/26 02:10:48;;;;;;;18.77;11.68;;;;;;;-141.97;58.49;47373.00;5047472;28;20190;-77
2023/07/26 02:13:14;;;;;;;16.70;11.43;;;;;;;-141.97;58.88;47359.56;5049681;28;20238;-78
2023/07/26 02:15:40;;;;;;;16.33;11.60;;;;;;;-141.97;58.87;47303.81;5049275;28;20246;-78
2023/07/26 02:18:06;;;;;;;15.43;11.93;;;;;;;-141.97;58.49;47378.78;5049336;28;20195;-78
2023/07/26 02:20:32;;;;;;;17.52;11.32;;;;;;;-141.97;58.34;47407.59;5049213;28;20586;-78
2023/07/26 02:22:58;;;;;;;15.93;11.60;;;;;;;-141.97;58.83;47384.53;5049141;28;20195;-78
2023/07/26 02:25:24;;;;;;;18.60;11.02;;;;;;;-141.97;58.52;47384.53;5048578;28;20187;-78
2023/07/26 02:27:49;;;;;;;15.30;10.90;;;;;;;-141.97;58.10;47392.22;5048609;28;20183;-78
2023/07/26 02:30:15;;;;;;;16.38;11.52;;;;;;;-141.97;57.91;47411.44;5049622;28;20282;-78
2023/07/26 02:32:40;;;;;;;17.90;11.45;;;;;;;-141.97;58.06;47361.47;5049926;28;20168;-78
2023/07/26 02:35:06;;;;;;;16.98;11.35;;;;;;;-141.97;58.33;47415.28;5050073;28;20160;-78
2023/07/26 02:37:32;;;;;;;19.63;11.88;;;;;;;-141.97;58.48;47373.00;5049967;28;20263;-78
2023/07/26 02:39:57;;;;;;;19.63;11.25;;;;;;;-141.97;58.52;47453.72;5048654;28;20579;-78
2023/07/26 02:42:22;;;;;;;19.67;11.32;;;;;;;-141.97;58.85;47411.44;5049706;28;20250;-78
2023/07/26 02:44:48;;;;;;;16.85;10.85;;;;;;;-141.97;59.77;47419.13;5049891;28;20250;-78
2023/07/26 02:47:13;;;;;;;16.50;12.18;;;;;;;-141.97;59.35;47417.22;5049445;28;20537;-78
2023/07/26 02:49:39;;;;;;;16.85;11.55;;;;;;;-141.97;59.16;47374.94;5049684;28;20250;-78
2023/07/26 02:52:04;;;;;;;17.25;11.27;;;;;;;-141.97;59.24;47380.69;5049346;28;20160;-78
2023/07/26 02:54:30;;;;;;;20.05;11.77;;;;;;;-141.97;59.24;47380.69;5048145;28;20597;-78
2023/07/26 02:56:55;;;;;;;19.38;12.38;;;;;;;-141.97;59.37;47344.19;5045895;28;20274;-78
2023/07/26 02:59:20;;;;;;;22.60;12.40;;;;;;;-141.97;59.53;47373.00;5048690;28;20241;-78
2023/07/26 03:01:46;;;;;;;18.00;12.18;;;;;;;-141.97;59.96;47415.28;5049031;28;20169;-79
2023/07/26 03:04:12;;;;;;;21.17;12.17;;;;;;;-141.97;59.37;47359.56;5049447;28;20278;-78
2023/07/26 03:06:39;;;;;;;17.83;11.63;;;;;;;-141.97;59.05;47384.53;5049078;28;20668;-78
2023/07/26 03:09:05;;;;;;;16.92;11.82;;;;;;;-141.97;58.91;47399.91;5037060;28;20702;-79
2023/07/26 03:11:30;;;;;;;19.85;12.48;;;;;;;-141.97;59.02;47419.13;5048629;28;20168;-79
2023/07/26 03:13:55;;;;;;;18.02;11.80;;;;;;;-141.97;58.97;47411.44;5048519;28;20182;-78
2023/07/26 03:16:21;;;;;;;16.88;11.88;;;;;;;-141.97;59.11;47405.69;5048709;28;20258;-78
2023/07/26 03:18:47;;;;;;;17.85;12.43;;;;;;;-141.97;59.31;47438.34;5048331;28;20166;-78
2023/07/26 03:21:12;;;;;;;17.70;12.50;;;;;;;-141.97;59.18;47415.28;5048078;28;20311;-78
2023/07/26 03:23:37;;;;;;;18.55;12.75;;;;;;;-141.97;59.20;47405.69;5049167;28;20201;-78
2023/07/26 03:26:03;;;;;;;18.00;12.13;;;;;;;-141.97;59.46;47432.59;5049157;28;20172;-77
2023/07/26 03:28:28;;;;;;;20.70;11.85;;;;;;;-141.97;59.25;47398.00;5044643;28;20233;-78
2023/07/26 03:30:54;;;;;;;19.63;12.48;;;;;;;-141.97;59.08;47399.91;5048627;28;20179;-78
2023/07/26 03:33:19;;;;;;;20.52;13.02;;;;;;;-141.97;58.73;47392.22;5048354;28;20254;-78
2023/07/26 03:35:44;;;;;;;22.67;13.05;;;;;;;-141.97;59.11;47317.28;5050218;28;20170;-78
2023/07/26 03:38:10;;;;;;;19.35;12.55;;;;;;;-141.97;59.32;47405.69;5051368;28;20223;-77
2023/07/26 03:40:35;;;;;;;18.10;12.25;;;;;;;-141.97;59.25;47444.13;5051721;28;20744;-78
2023/07/26 03:43:01;;;;;;;19.05;12.88;;;;;;;-141.97;59.25;47415.28;5052053;28;20201;-79
2023/07/26 03:45:27;;;;;;;19.90;12.48;;;;;;;-141.97;59.25;47434.50;5052256;28;20181;-78
2023/07/26 03:47:53;;;;;;;23.33;12.63;;;;;;;-141.97;59.28;47413.38;5050872;28;20185;-79
2023/07/26 03:50:22;;;;;;;17.80;12.00;;;;;;;-141.97;58.64;47419.13;5052633;28;20186;-79
2023/07/26 03:52:47;;;;;;;20.77;12.23;;;;;;;-141.97;58.30;47330.72;5052478;28;20545;-78
2023/07/26 03:55:14;;;;;;;19.80;11.75;;;;;;;-141.97;58.24;47421.06;5051877;28;20260;-77
2023/07/26 03:57:39;;;;;;;17.73;12.02;;;;;;;-141.97;58.24;47407.59;5051606;28;20166;-77
2023/07/26 04:00:05;;;;;;;19.45;11.73;;;;;;;-141.97;57.92;47428.75;5051687;28;20163;-79
2023/07/26 04:02:31;;;;;;;18.48;12.70;;;;;;;-141.97;57.74;47392.22;5051790;28;20664;-78
2023/07/26 04:04:56;;;;;;;19.55;11.93;;;;;;;-141.97;57.96;47476.78;5041690;28;20191;-78
2023/07/26 04:07:22;;;;;;;20.42;12.27;;;;;;;-141.97;57.97;47419.13;5050486;28;20182;-79
2023/07/26 04:09:47;;;;;;;19.35;11.52;;;;;;;-141.97;57.95;47407.59;5054450;28;20232;-79
2023/07/26 04:12:13;;;;;;;18.17;12.15;;;;;;;-141.97;57.91;47396.06;5066625;28;20163;-79
2023/07/26 04:14:38;;;;;;;24.85;12.30;;;;;;;-141.97;57.62;47346.09;5051764;28;20801;-78
2023/07/26 04:17:04;;;;;;;19.42;11.57;;;;;;;-141.97;57.32;47419.13;5051202;28;20180;-78
2023/07/26 04:19:29;;;;;;;17.25;11.90;;;;;;;-141.97;57.15;47419.13;5051280;28;20616;-78
2023/07/26 04:21:54;;;;;;;19.20;12.02;;;;;;;-141.97;57.21;47369.16;5049352;28;20171;-78
2023/07/26 04:24:20;;;;;;;19.73;12.20;;;;;;;-141.97;56.98;47405.69;5049926;28;20196;-79
2023/07/26 04:26:45;;;;;;;22.17;11.93;;;;;;;-141.97;56.79;47403.75;5051450;28;20255;-77
2023/07/26 04:29:10;;;;;;;22.95;11.77;;;;;;;-141.97;56.45;47348.03;5050874;28;20180;-77
2023/07/26 04:31:36;;;;;;;18.42;11.60;;;;;;;-141.97;55.81;47380.69;5051211;28;20542;-77
2023/07/26 04:34:01;;;;;;;18.80;11.20;;;;;;;-141.97;55.45;47432.59;5051190;28;20184;-78
2023/07/26 04:36:27;;;;;;;20.20;11.20;;;;;;;-141.97;55.12;47369.16;5048952;28;20327;-77
2023/07/26 04:38:52;;;;;;;19.60;11.20;;;;;;;-141.97;55.11;47407.59;5051236;28;20302;-77
2023/07/26 04:41:17;;;;;;;23.35;11.20;;;;;;;-141.97;55.03;47388.38;5051291;28;20271;-79
2023/07/26 04:43:43;;;;;;;19.17;10.93;;;;;;;-141.97;54.48;47382.63;5051449;28;20202;-78
2023/07/26 04:46:08;;;;;;;18.92;11.65;;;;;;;-141.97;54.36;47373.00;5051152;28;20204;-77
2023/07/26 04:48:33;;;;;;;20.48;10.88;;;;;;;-141.97;54.21;47373.00;5051201;28;20172;-78
2023/07/26 04:50:59;;;;;;;18.60;10.88;;;;;;;-141.97;54.45;47401.84;5051182;28;20659;-77
2023/07/26 04:53:24;;;;;;;16.90;11.10;;;;;;;-141.97;54.48;47407.59;5051242;28;20193;-78
2023/07/26 04:55:51;;;;;;;16.42;11.00;;;;;;;-141.97;54.01;47415.28;5050896;28;20184;-78
2023/07/26 04:58:17;;;;;;;18.52;11.20;;;;;;;-141.97;54.33;47384.53;5050041;28;20663;-78
2023/07/26 05:00:42;;;;;;;25.48;11.98;;;;;;;-141.97;54.34;47421.06;5049243;28;20246;-80
2023/07/26 05:03:09;;;;;;;19.17;11.18;;;;;;;-141.97;54.08;47422.97;5050174;28;20248;-78
2023/07/26 05:05:35;;;;;;;19.70;11.48;;;;;;;-141.97;53.47;47394.16;5050623;28;20171;-79
2023/07/26 05:08:02;;;;;;;22.85;11.70;;;;;;;-141.97;53.19;47386.47;5041427;28;20264;-79
2023/07/26 05:10:28;;;;;;;21.73;12.00;;;;;;;-141.97;53.78;47403.75;5050571;28;20177;-77
2023/07/26 05:12:54;;;;;;;21.35;12.13;;;;;;;-141.97;53.33;47399.91;5050685;28;20518;-78
2023/07/26 05:15:20;;;;;;;17.17;11.63;;;;;;;-141.97;52.72;47398.00;5051173;28;20184;-78
2023/07/26 05:17:45;;;;;;;18.63;12.25;;;;;;;-141.97;52.58;47407.59;5049647;28;20651;-77
2023/07/26 05:20:12;;;;;;;23.98;12.13;;;;;;;-141.97;52.82;47369.16;5051321;28;20184;-78
2023/07/26 05:22:37;;;;;;;19.40;10.73;;;;;;;-141.97;52.32;47407.59;5050708;28;20298;-78
2023/07/26 05:25:03;;;;;;;19.38;11.60;;;;;;;-141.97;52.52;47405.69;5050429;28;20280;-78
2023/07/26 05:27:28;;;;;;;19.85;11.63;;;;;;;-141.97;52.23;47384.53;5047962;28;20187;-78
2023/07/26 05:29:54;;;;;;;19.48;12.10;;;;;;;-141.97;52.36;47380.69;5050436;28;20225;-79
2023/07/26 05:32:20;;;;;;;18.30;11.35;;;;;;;-141.97;51.91;47403.75;5050971;28;20182;-79
2023/07/26 05:34:45;;;;;;;23.02;11.10;;;;;;;-141.97;51.29;47396.06;5050116;28;20171;-77
2023/07/26 05:37:11;;;;;;;20.92;11.85;;;;;;;-141.97;51.21;47380.69;5047716;28;20248;-77
2023/07/26 05:39:36;;;;;;;23.08;12.20;;;;;;;-141.97;51.47;47373.00;5049810;28;20314;-77
2023/07/26 05:42:01;;;;;;;20.90;11.95;;;;;;;-141.97;50.91;47424.91;5048273;28;20183;-77
2023/07/26 05:44:28;;;;;;;17.67;11.07;;;;;;;-141.97;49.96;47553.69;5049948;28;20653;-77
2023/07/26 05:46:54;;;;;;;17.95;10.95;;;;;;;-141.97;50.02;47369.16;5049739;28;20191;-77
2023/07/26 05:49:19;;;;;;;25.20;12.13;;;;;;;-141.97;49.63;47367.25;5049961;28;20180;-78
2023/07/26 05:51:45;;;;;;;18.30;11.32;;;;;;;-141.97;49.37;47371.09;5048744;28;20288;-77
2023/07/26 05:54:10;;;;;;;20.40;11.30;;;;;;;-141.97;49.56;47371.09;5049983;28;20515;-78
2023/07/26 05:56:36;;;;;;;20.98;11.38;;;;;;;-141.97;49.24;47373.00;5049693;28;20547;-78
2023/07/26 05:59:01;;;;;;;22.35;11.65;;;;;;;-141.97;48.32;47355.72;5049292;28;20176;-77
2023/07/26 06:01:27;;;;;;;18.95;11.60;;;;;;;-141.97;48.47;47376.84;5049418;28;20256;-78
2023/07/26 06:03:53;;;;;;;24.30;11.10;;;;;;;-141.97;48.41;47349.94;5048569;28;20274;-76
2023/07/26 06:06:19;;;;;;;20.88;11.55;;;;;;;-141.97;47.80;47355.72;5049584;28;20216;-77
2023/07/26 06:08:44;;;;;;;16.58;10.57;;;;;;;-141.97;47.36;47344.19;5039612;28;20242;-77
2023/07/26 06:11:10;;;;;;;17.98;10.82;;;;;;;-141.97;48.10;47355.72;5049177;28;20481;-78
2023/07/26 06:13:35;;;;;;;17.10;11.10;;;;;;;-141.97;48.19;47376.84;5049488;28;20167;-78
2023/07/26 06:16:01;;;;;;;17.52;11.02;;;;;;;-141.97;48.30;47484.47;5048946;28;20177;-78
2023/07/26 06:18:26;;;;;;;18.80;11.90;;;;;;;-141.97;47.22;47390.31;5049485;28;20173;-78
2023/07/26 06:20:51;;;;;;;18.77;10.90;;;;;;;-141.97;46.87;47421.06;5049596;28;20221;-77
2023/07/26 06:23:17;;;;;;;19.27;11.05;;;;;;;-141.97;46.69;47346.09;5049085;28;20247;-78
2023/07/26 06:25:42;;;;;;;19.30;11.02;;;;;;;-141.97;46.57;47361.47;5049106;28;20581;-78
2023/07/26 06:28:08;;;;;;;18.85;11.45;;;;;;;-141.97;46.79;47369.16;5048547;28;20165;-78
2023/07/26 06:30:33;;;;;;;17.15;11.05;;;;;;;-141.97;46.57;47382.63;5049811;28;20553;-78
2023/07/26 06:32:58;;;;;;;22.23;11.50;;;;;;;-141.97;46.57;47324.97;5058368;28;20161;-76
2023/07/26 06:35:24;;;;;;;18.05;11.25;;;;;;;-141.97;46.39;47346.09;5056940;28;20233;-78
2023/07/26 06:37:49;;;;;;;19.70;11.50;;;;;;;-141.97;45.40;47374.94;5048016;28;20217;-78
2023/07/26 06:40:15;;;;;;;20.00;11.43;;;;;;;-141.97;44.94;47328.81;5048519;28;21213;-78
2023/07/26 06:42:40;;;;;;;23.98;11.90;;;;;;;-141.97;45.35;47332.66;5048523;28;20199;-78
2023/07/26 06:45:06;;;;;;;25.05;11.40;;;;;;;-141.97;45.58;47330.72;5048729;28;20545;-78
2023/07/26 06:47:31;;;;;;;20.30;12.13;;;;;;;-141.97;45.81;47346.09;5047615;28;20207;-78
2023/07/26 06:49:57;;;;;;;17.33;11.55;;;;;;;-141.97;45.60;47346.09;5048833;28;20566;-78
2023/07/26 06:52:22;;;;;;;21.20;12.40;;;;;;;-141.97;45.52;47344.19;5054235;28;20206;-78
2023/07/26 06:54:48;;;;;;;22.45;12.43;;;;;;;-141.97;45.19;47330.72;5055332;28;20670;-78
2023/07/26 06:57:13;;;;;;;19.77;12.18;;;;;;;-141.97;45.17;47328.81;5053956;28;20186;-79
2023/07/26 06:59:38;;;;;;;16.30;12.43;;;;;;;-141.97;45.29;47307.66;5088328;28;20718;-78
2023/07/26 07:02:05;;;;;;;22.42;12.15;;;;;;;-141.97;44.97;47330.72;5048835;28;20192;-78
2023/07/26 07:04:32;;;;;;;21.48;12.23;;;;;;;-141.97;44.76;47494.09;5048897;28;20620;-78
2023/07/26 07:06:57;;;;;;;20.70;12.95;;;;;;;-141.97;44.22;47319.19;5048776;28;20255;-79
2023/07/26 07:09:24;;;;;;;18.73;11.75;;;;;;;-141.97;44.14;47311.50;5039804;28;20228;-78
2023/07/26 07:11:49;;;;;;;23.60;12.73;;;;;;;-141.97;43.67;47336.50;5053092;28;20163;-79
2023/07/26 07:14:15;;;;;;;21.02;11.57;;;;;;;-141.97;42.98;47326.88;5052695;28;20184;-78
2023/07/26 07:16:40;;;;;;;21.00;12.10;;;;;;;-141.97;42.69;47311.50;5051206;28;20178;-79
2023/07/26 07:19:06;;;;;;;16.77;12.32;;;;;;;-141.97;42.69;47253.84;5052177;28;20156;-78
2023/07/26 07:21:31;;;;;;;24.83;14.95;;;;;;;-141.97;42.70;47280.75;5084360;28;20172;-79
2023/07/26 07:23:56;;;;;;;24.05;12.25;;;;;;;-141.97;42.75;47290.38;5052122;28;20201;-79
2023/07/26 07:26:22;;;;;;;20.42;11.73;;;;;;;-141.97;41.82;47311.50;5051822;28;20556;-79
2023/07/26 07:28:47;;;;;;;21.17;11.55;;;;;;;-141.97;41.70;47303.81;5051984;28;20181;-79
2023/07/26 07:31:13;;;;;;;18.95;12.27;;;;;;;-141.97;41.24;47298.06;5052175;28;20165;-79
2023/07/26 07:33:38;;;;;;;15.52;11.65;;;;;;;-141.97;41.96;47276.91;5051962;28;20153;-79
2023/07/26 07:36:04;;;;;;;17.05;12.02;;;;;;;-141.97;42.25;47288.44;5051577;28;20173;-78
2023/07/26 07:38:31;;;;;;;15.75;12.02;;;;;;;-141.97;41.92;47278.84;5051707;28;20177;-78
2023/07/26 07:40:56;;;;;;;21.85;11.50;;;;;;;-141.97;41.58;47286.53;5052194;28;20532;-78
2023/07/26 07:43:22;;;;;;;19.55;11.27;;;;;;;-141.97;40.66;47238.47;5052385;28;20189;-78
2023/07/26 07:45:47;;;;;;;19.15;12.23;;;;;;;-141.97;40.40;47242.31;5051825;28;20165;-78
2023/07/26 07:48:12;;;;;;;18.27;11.13;;;;;;;-141.97;39.30;47236.56;5051481;28;20174;-78
2023/07/26 07:50:38;;;;;;;17.83;11.50;;;;;;;-141.97;39.17;47230.78;5051647;28;20173;-78
2023/07/26 07:53:04;;;;;;;20.80;11.93;;;;;;;-141.97;39.03;47230.78;5051895;28;20168;-78
2023/07/26 07:55:31;;;;;;;21.27;12.18;;;;;;;-141.97;38.52;47073.19;5051777;28;20215;-79
2023/07/26 07:57:59;;;;;;;18.83;11.73;;;;;;;-141.97;38.65;47255.78;5052100;28;20642;-79
2023/07/26 08:00:24;;;;;;;17.73;11.35;;;;;;;-141.97;39.00;47257.69;5052930;28;20172;-79
2023/07/26 08:02:49;;;;;;;18.65;12.15;;;;;;;-141.97;38.65;47242.31;5051865;28;20685;-79
2023/07/26 08:05:15;;;;;;;15.32;11.25;;;;;;;-141.97;38.91;47215.41;5051788;28;20248;-79
2023/07/26 08:07:40;;;;;;;17.25;11.15;;;;;;;-141.97;38.87;47246.16;5051344;28;20165;-76
2023/07/26 08:10:06;;;;;;;22.60;12.30;;;;;;;-141.97;38.56;47236.56;5041670;28;20227;-79
2023/07/26 08:12:34;;;;;;;17.15;12.40;;;;;;;-141.97;38.83;47236.56;5052106;28;20212;-79
2023/07/26 08:15:00;;;;;;;23.05;12.00;;;;;;;-141.97;38.65;47303.81;5052208;28;20185;-78
2023/07/26 08:17:25;;;;;;;18.75;12.07;;;;;;;-141.97;38.78;47223.09;5051191;28;20271;-79
2023/07/26 08:19:50;;;;;;;20.80;11.65;;;;;;;-141.97;38.29;47257.69;5032298;28;20744;-79
2023/07/26 08:22:16;;;;;;;18.00;11.50;;;;;;;-141.97;37.77;47211.56;5031250;28;20198;-79
2023/07/26 08:24:41;;;;;;;22.27;12.30;;;;;;;-141.97;38.25;47203.88;5031762;28;20162;-79
2023/07/26 08:27:07;;;;;;;19.75;11.80;;;;;;;-141.97;38.17;47230.78;5040884;28;20200;-78
2023/07/26 08:29:32;;;;;;;23.98;12.45;;;;;;;-141.97;37.62;47226.94;5051881;28;20165;-79
2023/07/26 08:31:58;;;;;;;19.92;12.35;;;;;;;-141.97;38.20;47209.66;5051323;28;20185;-79
2023/07/26 08:34:23;;;;;;;20.02;11.75;;;;;;;-141.97;39.03;47225.03;5050594;28;20645;-79
2023/07/26 08:36:49;;;;;;;18.83;12.23;;;;;;;-141.97;39.12;47246.16;5050477;28;20370;-78
2023/07/26 08:39:14;;;;;;;16.65;11.43;;;;;;;-141.97;38.62;47221.19;5051029;28;20290;-79
2023/07/26 08:41:40;;;;;;;16.02;11.63;;;;;;;-141.97;38.25;47242.31;5049165;28;20201;-78
2023/07/26 08:44:08;;;;;;;18.85;12.55;;;;;;;-141.97;38.27;47171.22;5050967;28;20659;-78
2023/07/26 08:46:38;;;;;;;21.13;12.10;;;;;;;-141.97;37.45;47184.66;5051326;28;20280;-78
2023/07/26 08:49:03;;;;;;;23.58;12.05;;;;;;;-141.97;37.48;47217.34;5052202;28;20225;-77
2023/07/26 08:51:30;;;;;;;21.35;11.85;;;;;;;-141.97;37.34;47211.56;5052444;28;20176;-78
2023/07/26 08:53:57;;;;;;;19.85;12.05;;;;;;;-141.97;37.17;47200.03;5060913;28;20261;-77
2023/07/26 08:56:25;;;;;;;16.95;11.15;;;;;;;-141.97;37.21;47203.88;5065516;28;20185;-77
2023/07/26 08:58:51;;;;;;;17.40;11.13;;;;;;;-141.97;35.79;47184.66;5055278;28;20184;-78
2023/07/26 09:01:16;;;;;;;21.50;12.18;;;;;;;-141.97;36.32;47196.19;5051259;28;20252;-79
2023/07/26 09:03:42;;;;;;;19.60;11.18;;;;;;;-141.97;36.30;47178.91;5051160;28;20208;-78
2023/07/26 09:06:08;;;;;;;17.90;11.82;;;;;;;-141.97;36.30;47198.09;5051071;28;20811;-78
2023/07/26 09:08:35;;;;;;;19.63;12.32;;;;;;;-141.97;35.88;47182.75;5050484;28;20178;-79
2023/07/26 09:11:03;;;;;;;17.48;11.48;;;;;;;-141.97;36.12;47184.66;5041762;28;20247;-78
2023/07/26 09:13:29;;;;;;;17.33;11.15;;;;;;;-141.97;36.05;47188.50;5050343;28;20265;-79
2023/07/26 09:15:54;;;;;;;17.88;11.77;;;;;;;-141.97;35.78;47176.97;5050205;28;20170;-78
2023/07/26 09:18:20;;;;;;;16.90;11.32;;;;;;;-141.97;35.47;47098.19;5049972;28;20264;-78
2023/07/26 09:20:45;;;;;;;22.40;11.60;;;;;;;-141.97;35.10;47171.22;5049967;28;20184;-78
2023/07/26 09:23:12;;;;;;;16.50;11.20;;;;;;;-141.97;34.80;47180.81;5049505;28;20547;-78
2023/07/26 09:25:43;;;;;;;18.60;12.07;;;;;;;-141.97;35.36;47159.69;5048571;28;20594;-79
2023/07/26 09:28:13;;;;;;;21.73;11.98;;;;;;;-141.97;35.66;47169.28;5049760;28;20173;-79
2023/07/26 09:30:45;;;;;;;15.60;11.25;;;;;;;-141.97;35.37;47150.06;5049960;28;20230;-78
2023/07/26 09:33:11;;;;;;;17.92;12.18;;;;;;;-141.97;34.51;47167.38;5049230;28;20766;-79
2023/07/26 09:35:48;;;;;;;19.70;12.15;;;;;;;-141.97;34.86;47184.66;5049931;28;20166;-78
2023/07/26 09:38:17;;;;;;;17.98;11.88;;;;;;;-141.97;35.68;47167.38;5048932;28;20225;-79
2023/07/26 09:40:43;;;;;;;19.98;11.60;;;;;;;-141.97;34.81;47180.81;5050030;28;20225;-79
2023/07/26 09:43:08;;;;;;;18.75;11.73;;;;;;;-141.97;34.59;47173.13;5049234;28;20260;-78
2023/07/26 09:45:36;;;;;;;19.48;11.98;;;;;;;-141.97;34.81;47032.84;5050427;28;20189;-77
2023/07/26 09:48:09;;;;;;;19.50;11.25;;;;;;;-141.97;34.15;47180.81;5085643;28;20181;-78
2023/07/26 09:50:35;;;;;;;19.52;11.82;;;;;;;-141.97;34.33;47159.69;5049444;28;20183;-78
2023/07/26 09:53:03;;;;;;;19.52;11.68;;;;;;;-141.97;34.20;47127.00;5049265;28;20193;-79
2023/07/26 09:55:29;;;;;;;19.60;11.10;;;;;;;-141.97;34.14;47148.16;5049517;28;20164;-79
2023/07/26 09:57:56;;;;;;;22.30;11.63;;;;;;;-141.97;34.22;47136.63;5049016;28;20173;-79
2023/07/26 10:00:24;;;;;;;17.95;11.60;;;;;;;-141.97;34.23;47163.53;5049034;28;20200;-78
2023/07/26 10:03:06;;;;;;;22.15;11.57;;;;;;;-141.97;34.49;47142.38;5047610;28;20300;-79
2023/07/26 10:05:47;;;;;;;15.20;11.20;;;;;;;-141.97;34.06;47148.16;5049081;28;20165;-78
2023/07/26 10:08:13;;;;;;;19.27;11.77;;;;;;;-141.97;33.48;47077.03;5048802;28;20582;-78
2023/07/26 10:10:41;;;;;;;16.30;11.18;;;;;;;-141.97;33.06;47105.88;5039871;28;20251;-79
2023/07/26 10:13:08;;;;;;;17.55;10.98;;;;;;;-141.97;33.13;47148.16;5049243;28;20184;-78
2023/07/26 10:15:35;;;;;;;20.17;10.75;;;;;;;-141.97;32.94;47127.00;5049049;28;20220;-79
2023/07/26 10:18:01;;;;;;;19.60;11.07;;;;;;;-141.97;32.97;47119.31;5047697;28;20631;-79
2023/07/26 10:20:26;;;;;;;19.42;11.00;;;;;;;-141.97;32.32;47148.16;5049329;28;20177;-79
2023/07/26 10:22:54;;;;;;;21.02;11.65;;;;;;;-141.97;33.13;47119.31;5048619;28;20201;-78
2023/07/26 10:25:20;;;;;;;17.88;11.32;;;;;;;-141.97;33.43;47161.59;5048922;28;20247;-78
2023/07/26 10:27:46;;;;;;;18.10;11.85;;;;;;;-141.97;33.98;47142.38;5048794;28;20181;-78
2023/07/26 10:30:12;;;;;;;20.70;11.43;;;;;;;-141.97;33.69;47144.31;5050491;28;20165;-78
2023/07/26 10:32:50;;;;;;;20.27;12.27;;;;;;;-141.97;33.90;47123.16;5050341;28;20181;-79
2023/07/26 10:35:33;;;;;;;18.02;11.68;;;;;;;-141.97;33.34;47132.78;5047993;28;20215;-79
2023/07/26 10:37:59;;;;;;;20.92;11.90;;;;;;;-141.97;33.32;47138.53;5048087;28;20790;-79
2023/07/26 10:40:35;;;;;;;18.05;11.02;;;;;;;-141.97;33.76;47134.69;5047810;28;20670;-79
2023/07/26 10:43:24;;;;;;;18.35;11.18;;;;;;;-141.97;32.95;47113.56;5048215;28;20205;-79
2023/07/26 10:45:53;;;;;;;20.05;12.35;;;;;;;-141.97;32.83;47140.47;5054711;28;20613;-78
2023/07/26 10:48:26;;;;;;;16.48;11.27;;;;;;;-141.97;32.69;47094.34;5056130;28;20246;-78
2023/07/26 10:50:58;;;;;;;20.15;11.15;;;;;;;-141.97;32.81;47134.69;5056611;28;20664;-79
2023/07/26 10:53:36;;;;;;;22.38;12.10;;;;;;;-141.97;32.39;47128.94;5053263;28;20538;-79
2023/07/26 10:56:12;;;;;;;18.73;11.23;;;;;;;-141.97;32.45;47080.88;5054726;28;20356;-79
2023/07/26 10:58:57;;;;;;;19.02;11.65;;;;;;;-141.97;33.20;47128.94;5054098;28;20190;-79